Brookeville, MD (20833)

11:34 AM EDT on July 04, 2015 (GMT -0400)
Triadelphia Reservoir | | Change Station
CLOSE
Current Station
Personal Weather Station
Location: Brookeville, MD
Elevation: 463 ft
Nearby Weather Stations

Elev 463 ft 39.19 °N, 77.02 °W | Updated 3 minutes ago

Overcast
Overcast
70.8 °F
Feels Like 70.8 °F
N
0.0
Wind Variable Wind from SE
Gusts 2.0 mph

Today
High -- | Low -- °F
--% Chance of Precip.
Yesterday
High -- | Low -- °F
Precip. -- in
5:47 AM 8:37 PM
Waning Gibbous, 92% visible
Pressure 29.96 in
Visibility 9.0 miles
Clouds Scattered Clouds 600 ft
Mostly Cloudy 2200 ft
Overcast 2600 ft
Dew Point 69 °F
Humidity 93%
Rainfall 0.07 in
Snow Depth Not available.
UV 3 out of 12
Pollen .60 out of 12
Air Quality Not available.
Flu Activity Not available.
METAR KGAI 041515Z AUTO 15006KT 9SM SCT006 BKN022 OVC026 21/19 A2996 RMK AO1

More Conditions Fewer Conditions

Pressure 29.96 in
Visibility 9.0 miles
Clouds Scattered Clouds 600 ft
Mostly Cloudy 2200 ft
Overcast 2600 ft
Dew Point 69 °F
Humidity 93%
Rainfall 0.07 in
Snow Depth Not available.
UV 3 out of 12
Pollen .60 out of 12
Air Quality Not available.
Flu Activity Not available.
METAR KGAI 041515Z AUTO 15006KT 9SM SCT006 BKN022 OVC026 21/19 A2996 RMK AO1

More Conditions Fewer Conditions

10-Day Weather Forecast

×

Almanac

Astronomy

Jul. 04, 2015 Rise Set
Actual Time
Civil Twilight
Nautical Twilight
Astronomical Twilight
Moon
Length of Visible Light
Length of Day
Tomorrow will be .
, % of the Moon is Illuminated

Today's Extremes

State Highs State Lows

Community

WunderPhotos

Upload Photos

1,834,987 photos uploaded!

WunderBlogs® & News

Nearby

Air Quality

  Air Quality AQ Index Pollutant
Not available.

Snow Depth

Station Depth Elevation

Earthquake Activity

City Distance Mag. Time & Date
Minimum magnitude displayed is 2.5.

Coastal Water Temperatures

Place Temperature

Stations

Nearby Weather Stations

Station Location Temp. Windchill Dew Point Humidity Wind Precip. Elev Updated Type